createdAt,value
2023-05-10T00:00:47.666Z,51.44
2023-05-10T00:02:09.230Z,51.64
2023-05-10T00:03:31.283Z,51.65
2023-05-10T00:04:53.283Z,51.81
2023-05-10T00:06:14.980Z,51.72
2023-05-10T00:07:45.925Z,51.60
2023-05-10T00:09:13.160Z,51.75
2023-05-10T00:10:37.080Z,51.57
2023-05-10T00:12:01.219Z,51.93
2023-05-10T00:13:25.345Z,51.65
2023-05-10T00:14:54.856Z,51.92
2023-05-10T00:16:16.551Z,51.86
2023-05-10T00:17:38.758Z,52.09
2023-05-10T00:19:11.915Z,51.99
2023-05-10T00:20:33.761Z,51.91
2023-05-10T00:21:58.191Z,52.00
2023-05-10T00:23:32.111Z,51.77
2023-05-10T00:24:53.667Z,51.74
2023-05-10T00:26:17.541Z,51.84
2023-05-10T00:27:40.704Z,51.87
2023-05-10T00:29:02.420Z,51.74
2023-05-10T00:30:26.745Z,51.85
2023-05-10T00:31:53.638Z,51.81
2023-05-10T00:33:19.242Z,51.99
2023-05-10T00:34:41.032Z,51.86
2023-05-10T00:36:02.696Z,52.02
2023-05-10T00:37:24.436Z,51.83
2023-05-10T00:38:46.740Z,51.59
2023-05-10T00:40:20.257Z,51.91
2023-05-10T00:41:44.042Z,51.69
2023-05-10T00:43:05.887Z,51.70
2023-05-10T00:44:27.626Z,51.70
2023-05-10T00:45:51.887Z,51.91
2023-05-10T00:47:13.412Z,51.42
2023-05-10T00:48:37.333Z,51.66
2023-05-10T00:50:11.028Z,51.55
2023-05-10T00:51:40.136Z,51.82
2023-05-10T00:53:01.781Z,51.82
2023-05-10T00:54:23.437Z,51.71
2023-05-10T00:55:46.372Z,51.89
2023-05-10T00:57:11.592Z,51.92
2023-05-10T00:58:33.552Z,51.57
2023-05-10T00:59:57.384Z,51.78
2023-05-10T01:01:26.591Z,52.14
2023-05-10T01:02:48.550Z,51.70
2023-05-10T01:04:13.174Z,51.66
2023-05-10T01:05:35.219Z,51.71
2023-05-10T01:06:57.419Z,51.61
2023-05-10T01:08:18.897Z,51.76
2023-05-10T01:09:40.690Z,51.43
2023-05-10T01:11:03.364Z,51.82
2023-05-10T01:12:25.469Z,51.82
2023-05-10T01:13:57.145Z,51.91
2023-05-10T01:15:19.007Z,51.82
2023-05-10T01:16:40.550Z,51.92
2023-05-10T01:18:02.031Z,51.55
2023-05-10T01:19:25.941Z,51.92
2023-05-10T01:20:47.982Z,52.21
2023-05-10T01:22:12.705Z,51.93
2023-05-10T01:23:34.380Z,51.83
2023-05-10T01:24:58.520Z,51.81
2023-05-10T01:26:22.483Z,51.84
2023-05-10T01:27:44.360Z,51.80
2023-05-10T01:29:06.985Z,52.09
2023-05-10T01:30:29.070Z,52.21
2023-05-10T01:31:50.858Z,52.03
2023-05-10T01:33:12.739Z,51.85
2023-05-10T01:34:34.544Z,52.00
2023-05-10T01:36:07.956Z,51.84
2023-05-10T01:37:30.229Z,51.93
2023-05-10T01:38:59.399Z,52.04
2023-05-10T01:40:21.164Z,52.16
2023-05-10T01:41:42.894Z,52.18
2023-05-10T01:43:04.463Z,52.31
2023-05-10T01:44:26.726Z,52.39
2023-05-10T01:45:48.841Z,52.41
2023-05-10T01:47:12.580Z,52.27
2023-05-10T01:48:44.535Z,52.55
2023-05-10T01:50:05.863Z,52.47
2023-05-10T01:51:30.180Z,52.52
2023-05-10T01:52:51.993Z,52.61
2023-05-10T01:54:21.618Z,52.34
2023-05-10T01:55:47.174Z,52.30
2023-05-10T01:57:10.962Z,52.42
2023-05-10T01:58:35.247Z,52.53
2023-05-10T01:59:57.221Z,52.95
2023-05-10T02:01:19.288Z,52.67
2023-05-10T02:02:41.331Z,52.58
2023-05-10T02:04:02.747Z,52.51
2023-05-10T02:05:24.804Z,52.51
2023-05-10T02:06:49.355Z,52.79
2023-05-10T02:08:11.281Z,52.89
2023-05-10T02:09:33.167Z,52.80
2023-05-10T02:10:54.324Z,53.12
2023-05-10T02:12:18.460Z,53.10
2023-05-10T02:13:40.526Z,53.16
2023-05-10T02:15:02.142Z,53.26
2023-05-10T02:16:24.090Z,53.40
2023-05-10T02:17:45.929Z,53.58
2023-05-10T02:19:09.791Z,53.30
2023-05-10T02:20:39.282Z,53.34
2023-05-10T02:22:01.118Z,53.51
2023-05-10T02:23:24.715Z,53.43
2023-05-10T02:24:46.776Z,53.74
2023-05-10T02:26:16.140Z,53.55
2023-05-10T02:27:37.957Z,53.80
2023-05-10T02:29:01.707Z,53.70
2023-05-10T02:30:23.425Z,53.68
2023-05-10T02:31:45.586Z,53.86
2023-05-10T02:33:07.422Z,53.87
2023-05-10T02:34:31.699Z,53.74
2023-05-10T02:35:53.818Z,53.68
2023-05-10T02:37:26.918Z,53.97
2023-05-10T02:38:49.127Z,53.76
2023-05-10T02:40:11.962Z,53.80
2023-05-10T02:41:36.102Z,53.82
2023-05-10T02:43:00.394Z,54.08
2023-05-10T02:44:22.267Z,53.91
2023-05-10T02:45:44.080Z,53.98
2023-05-10T02:47:13.563Z,53.80
2023-05-10T02:48:42.388Z,53.68
2023-05-10T02:50:06.452Z,54.30
2023-05-10T02:51:27.959Z,54.33
2023-05-10T02:52:49.606Z,54.52
2023-05-10T02:54:11.131Z,54.30
2023-05-10T02:55:33.369Z,54.32
2023-05-10T02:56:55.254Z,54.59
2023-05-10T02:58:19.342Z,54.73
2023-05-10T02:59:43.666Z,54.67
2023-05-10T03:01:08.546Z,54.81
2023-05-10T03:02:33.048Z,54.26
2023-05-10T03:04:04.098Z,54.14
2023-05-10T03:05:26.132Z,54.31
2023-05-10T03:06:55.493Z,54.90
2023-05-10T03:08:16.978Z,54.76
2023-05-10T03:09:43.266Z,54.72
2023-05-10T03:11:05.052Z,54.96
2023-05-10T03:12:29.422Z,54.85
2023-05-10T03:13:51.289Z,54.73
2023-05-10T03:15:13.112Z,55.01
2023-05-10T03:16:35.038Z,55.01
2023-05-10T03:17:56.787Z,54.89
2023-05-10T03:19:23.796Z,55.06
2023-05-10T03:20:45.732Z,54.69
2023-05-10T03:22:09.629Z,55.10
2023-05-10T03:23:31.937Z,55.26
2023-05-10T03:24:56.382Z,55.18
2023-05-10T03:26:26.377Z,55.15
2023-05-10T03:27:54.166Z,55.28
2023-05-10T03:29:18.259Z,55.24
2023-05-10T03:30:42.117Z,55.28
2023-05-10T03:32:05.560Z,55.54
2023-05-10T03:33:27.964Z,55.45
2023-05-10T03:34:52.075Z,55.32
2023-05-10T03:36:16.107Z,55.72
2023-05-10T03:37:38.116Z,55.82
2023-05-10T03:39:00.348Z,55.99
2023-05-10T03:40:26.770Z,55.93
2023-05-10T03:41:48.307Z,55.85
2023-05-10T03:43:09.976Z,56.19
2023-05-10T03:44:34.090Z,55.95
2023-05-10T03:45:55.700Z,55.59
2023-05-10T03:47:17.265Z,55.50
2023-05-10T03:48:38.708Z,55.36
2023-05-10T03:50:07.993Z,55.46
2023-05-10T03:51:32.316Z,55.74
2023-05-10T03:52:56.127Z,55.64
2023-05-10T03:54:20.011Z,55.51
2023-05-10T03:55:41.968Z,55.81
2023-05-10T03:57:11.441Z,55.58
2023-05-10T03:58:33.631Z,55.34
2023-05-10T04:00:04.091Z,55.38
2023-05-10T04:01:36.128Z,55.31
2023-05-10T04:03:05.250Z,55.06
2023-05-10T04:04:29.244Z,55.22
2023-05-10T04:05:53.287Z,55.12
2023-05-10T04:07:25.465Z,55.29
2023-05-10T04:08:54.857Z,55.12
2023-05-10T04:10:17.526Z,55.16
2023-05-10T04:11:39.523Z,54.92
2023-05-10T04:13:01.240Z,55.48
2023-05-10T04:14:25.060Z,55.13
2023-05-10T04:15:46.703Z,55.00
2023-05-10T04:17:15.976Z,54.95
2023-05-10T04:18:37.914Z,55.13
2023-05-10T04:19:59.716Z,54.96
2023-05-10T04:21:21.125Z,54.72
2023-05-10T04:22:42.985Z,54.62
2023-05-10T04:24:05.156Z,54.50
2023-05-10T04:25:26.795Z,54.74
2023-05-10T04:26:47.955Z,54.69
2023-05-10T04:28:11.857Z,54.65
2023-05-10T04:29:36.193Z,54.35
2023-05-10T04:30:57.921Z,54.17
2023-05-10T04:32:21.287Z,54.02
2023-05-10T04:33:43.425Z,54.34
2023-05-10T04:35:05.713Z,54.26
2023-05-10T04:36:27.603Z,53.99
2023-05-10T04:37:49.751Z,53.85
2023-05-10T04:39:11.013Z,53.74
2023-05-10T04:40:33.038Z,53.63
2023-05-10T04:41:54.625Z,53.64
2023-05-10T04:43:16.471Z,53.87
2023-05-10T04:44:38.040Z,53.85
2023-05-10T04:46:09.614Z,53.74
2023-05-10T04:47:31.791Z,53.62
2023-05-10T04:48:55.873Z,53.78
2023-05-10T04:50:19.984Z,53.67
2023-05-10T04:51:42.069Z,53.50
2023-05-10T04:53:06.190Z,53.65
2023-05-10T04:54:27.756Z,53.87
2023-05-10T04:55:56.843Z,53.29
2023-05-10T04:57:18.649Z,53.08
2023-05-10T04:58:40.604Z,53.04
2023-05-10T05:00:04.835Z,52.77
2023-05-10T05:01:28.795Z,52.43
2023-05-10T05:02:51.292Z,52.15
2023-05-10T05:04:13.063Z,51.78
2023-05-10T05:05:35.020Z,51.86
2023-05-10T05:06:56.988Z,51.70
2023-05-10T05:08:26.205Z,51.49
2023-05-10T05:09:47.885Z,51.20
2023-05-10T05:11:19.700Z,50.79
2023-05-10T05:12:41.424Z,50.75
2023-05-10T05:14:17.334Z,50.73
2023-05-10T05:15:39.307Z,50.43
2023-05-10T05:17:10.954Z,50.13
2023-05-10T05:18:35.275Z,50.59
2023-05-10T05:19:59.313Z,49.91
2023-05-10T05:21:21.229Z,49.69
2023-05-10T05:22:45.408Z,49.64
2023-05-10T05:24:18.986Z,49.61
2023-05-10T05:25:40.687Z,49.09
2023-05-10T05:27:04.866Z,49.17
2023-05-10T05:28:38.345Z,49.01
2023-05-10T05:30:07.436Z,48.93
2023-05-10T05:31:31.941Z,49.02
2023-05-10T05:32:53.803Z,48.80
2023-05-10T05:34:17.881Z,47.69
2023-05-10T05:35:51.837Z,47.11
2023-05-10T05:37:21.676Z,46.76
2023-05-10T05:38:46.113Z,47.03
2023-05-10T05:40:12.156Z,46.52
2023-05-10T05:41:36.565Z,46.26
2023-05-10T05:43:05.486Z,46.11
2023-05-10T05:44:34.457Z,45.93
2023-05-10T05:46:07.990Z,45.56
2023-05-10T05:47:31.980Z,45.89
2023-05-10T05:48:53.891Z,45.50
2023-05-10T05:50:17.707Z,46.21
2023-05-10T05:51:50.149Z,45.55
2023-05-10T05:53:19.304Z,45.76
2023-05-10T05:54:45.727Z,44.98
2023-05-10T05:56:07.244Z,45.29
2023-05-10T05:57:28.987Z,45.29
2023-05-10T05:59:02.558Z,45.18
2023-05-10T06:00:24.064Z,45.15
2023-05-10T06:01:48.056Z,45.24
2023-05-10T06:03:12.177Z,45.13
2023-05-10T06:04:34.324Z,45.35
2023-05-10T06:05:58.054Z,45.00
2023-05-10T06:07:26.978Z,44.44
2023-05-10T06:08:48.483Z,44.39
2023-05-10T06:10:12.799Z,44.58
2023-05-10T06:11:36.755Z,45.01
2023-05-10T06:13:12.662Z,44.61
2023-05-10T06:14:44.064Z,45.00
2023-05-10T06:16:18.705Z,44.96
2023-05-10T06:17:43.736Z,44.73
2023-05-10T06:19:05.560Z,44.67
2023-05-10T06:20:39.170Z,44.06
2023-05-10T06:22:03.266Z,44.32
2023-05-10T06:23:26.496Z,44.29
2023-05-10T06:24:50.446Z,44.24
2023-05-10T06:26:23.490Z,44.13
2023-05-10T06:27:49.082Z,43.80
2023-05-10T06:29:12.922Z,44.04
2023-05-10T06:30:37.102Z,43.70
2023-05-10T06:32:12.745Z,43.60
2023-05-10T06:33:37.020Z,43.33
2023-05-10T06:34:58.955Z,43.58
2023-05-10T06:36:25.560Z,43.57
2023-05-10T06:37:49.283Z,43.30
2023-05-10T06:39:12.608Z,42.84
2023-05-10T06:40:36.883Z,42.72
2023-05-10T06:42:00.739Z,42.74
2023-05-10T06:43:31.385Z,42.98
2023-05-10T06:45:12.058Z,43.11
2023-05-10T06:46:34.477Z,43.27
2023-05-10T06:48:03.840Z,43.20
2023-05-10T06:49:25.596Z,43.06
2023-05-10T06:50:54.730Z,43.49
2023-05-10T06:52:21.037Z,42.34
2023-05-10T06:53:42.848Z,42.10
2023-05-10T06:55:04.860Z,42.37
2023-05-10T06:56:29.358Z,42.19
2023-05-10T06:57:53.323Z,42.00
2023-05-10T06:59:22.668Z,42.40
2023-05-10T07:00:44.846Z,42.69
2023-05-10T07:02:07.058Z,42.62
2023-05-10T07:03:29.058Z,42.24
2023-05-10T07:05:03.562Z,42.19
2023-05-10T07:06:33.258Z,41.65
2023-05-10T07:07:57.803Z,42.07
2023-05-10T07:09:23.804Z,41.73
2023-05-10T07:10:45.550Z,41.87
2023-05-10T07:12:09.575Z,42.13
2023-05-10T07:13:35.607Z,41.98
2023-05-10T07:14:57.508Z,41.78
2023-05-10T07:16:21.441Z,41.79
2023-05-10T07:17:50.322Z,42.08
2023-05-10T07:19:14.256Z,42.20
2023-05-10T07:20:36.476Z,42.02
2023-05-10T07:22:00.232Z,41.48
2023-05-10T07:23:26.989Z,41.42
2023-05-10T07:25:03.061Z,41.57
2023-05-10T07:26:36.696Z,41.05
2023-05-10T07:28:01.397Z,41.49
2023-05-10T07:29:34.881Z,41.41
2023-05-10T07:30:56.931Z,41.17
2023-05-10T07:32:30.855Z,41.04
2023-05-10T07:34:04.213Z,40.98
2023-05-10T07:35:33.570Z,41.04
2023-05-10T07:36:55.338Z,40.66
2023-05-10T07:38:18.664Z,40.95
2023-05-10T07:39:52.756Z,40.55
2023-05-10T07:41:14.256Z,40.38
2023-05-10T07:42:36.380Z,40.22
2023-05-10T07:43:58.048Z,40.50
2023-05-10T07:45:19.654Z,40.40
2023-05-10T07:46:41.447Z,40.54
2023-05-10T07:48:03.239Z,40.86
2023-05-10T07:49:25.318Z,40.47
2023-05-10T07:50:49.474Z,40.17
2023-05-10T07:52:11.163Z,40.24
2023-05-10T07:53:33.375Z,39.73
2023-05-10T07:54:55.386Z,39.78
2023-05-10T07:56:19.529Z,39.48
2023-05-10T07:57:41.318Z,39.59
2023-05-10T07:59:23.807Z,39.65
2023-05-10T08:00:50.672Z,39.54
2023-05-10T08:02:12.126Z,39.16
2023-05-10T08:03:39.246Z,39.35
2023-05-10T08:05:03.285Z,39.67
2023-05-10T08:06:27.424Z,39.88
2023-05-10T08:07:49.173Z,39.29
2023-05-10T08:09:11.811Z,39.23
2023-05-10T08:10:33.771Z,39.44
2023-05-10T08:11:57.772Z,38.95
2023-05-10T08:13:19.639Z,38.44
2023-05-10T08:14:41.670Z,38.89
2023-05-10T08:16:03.470Z,38.48
2023-05-10T08:17:25.384Z,38.13
2023-05-10T08:18:50.779Z,38.03
2023-05-10T08:20:13.849Z,38.46
2023-05-10T08:21:36.949Z,38.51
2023-05-10T08:23:00.850Z,37.51
2023-05-10T08:24:23.538Z,36.94
2023-05-10T08:25:47.802Z,37.08
2023-05-10T08:27:09.184Z,37.53
2023-05-10T08:28:33.150Z,37.48
2023-05-10T08:29:55.249Z,37.41
2023-05-10T08:31:19.191Z,37.04
2023-05-10T08:32:41.255Z,37.30
2023-05-10T08:34:02.798Z,36.63
2023-05-10T08:35:36.158Z,36.22
2023-05-10T08:37:01.012Z,35.56
2023-05-10T08:40:22.625Z,35.51
2023-05-10T08:41:46.876Z,35.14
2023-05-10T08:43:09.585Z,35.07
2023-05-10T08:44:31.630Z,35.40
2023-05-10T08:45:53.882Z,35.43
2023-05-10T08:47:15.613Z,36.15
2023-05-10T08:48:37.547Z,35.81
2023-05-10T08:50:01.862Z,35.89
2023-05-10T08:51:26.303Z,36.01
2023-05-10T08:52:49.132Z,35.56
2023-05-10T08:54:15.063Z,35.54
2023-05-10T08:55:44.464Z,35.62
2023-05-10T08:57:08.532Z,35.55
2023-05-10T08:58:38.417Z,34.75
2023-05-10T09:00:02.467Z,34.44
2023-05-10T09:01:32.045Z,34.86
2023-05-10T09:02:53.913Z,34.66
2023-05-10T09:04:15.734Z,34.39
2023-05-10T09:05:49.799Z,33.55
2023-05-10T09:07:11.666Z,33.96
2023-05-10T09:08:35.923Z,33.56
2023-05-10T09:09:57.772Z,33.37
2023-05-10T09:11:19.107Z,33.32
2023-05-10T09:12:40.805Z,34.12
2023-05-10T09:14:12.134Z,34.81
2023-05-10T09:15:36.460Z,34.46
2023-05-10T09:16:58.469Z,34.37
2023-05-10T09:18:22.363Z,34.31
2023-05-10T09:19:43.766Z,34.81
2023-05-10T09:21:05.417Z,34.01
2023-05-10T09:22:39.781Z,33.45
2023-05-10T09:24:01.691Z,33.20
2023-05-10T09:25:25.711Z,33.41
2023-05-10T09:26:48.605Z,33.08
2023-05-10T09:28:17.421Z,32.91
2023-05-10T09:29:41.544Z,32.95
2023-05-10T09:31:03.562Z,32.87
2023-05-10T09:32:25.116Z,33.88
2023-05-10T09:33:52.248Z,33.43
2023-05-10T09:35:13.646Z,33.15
2023-05-10T09:36:40.344Z,32.92
2023-05-10T09:38:02.279Z,33.51
2023-05-10T09:39:26.597Z,32.63
2023-05-10T09:40:55.211Z,32.24
2023-05-10T09:42:16.646Z,32.45
2023-05-10T09:43:45.611Z,32.85
2023-05-10T09:45:07.313Z,33.19
2023-05-10T09:46:28.988Z,33.54
2023-05-10T09:47:50.956Z,32.97
2023-05-10T09:49:12.514Z,32.87
2023-05-10T09:50:37.148Z,33.18
2023-05-10T09:51:58.856Z,32.83
2023-05-10T09:53:20.635Z,32.06
2023-05-10T09:54:44.676Z,32.07
2023-05-10T09:56:08.822Z,32.06
2023-05-10T09:57:31.886Z,32.29
2023-05-10T09:58:54.371Z,32.85
2023-05-10T10:00:16.022Z,32.57
2023-05-10T10:01:37.504Z,32.63
2023-05-10T10:02:59.454Z,32.28
2023-05-10T10:04:21.859Z,32.77
2023-05-10T10:05:44.209Z,34.29
2023-05-10T10:07:05.600Z,34.30
2023-05-10T10:08:27.453Z,34.49
2023-05-10T10:09:51.728Z,33.93
2023-05-10T10:11:13.011Z,32.96
2023-05-10T10:12:35.224Z,32.45
2023-05-10T10:14:04.076Z,31.86
2023-05-10T10:15:26.075Z,31.64
2023-05-10T10:16:59.913Z,31.86
2023-05-10T10:18:30.378Z,31.92
2023-05-10T10:19:52.188Z,32.27
2023-05-10T10:21:13.719Z,32.16
2023-05-10T10:22:37.588Z,32.24
2023-05-10T10:23:59.359Z,32.16
2023-05-10T10:25:21.109Z,31.73
2023-05-10T10:26:45.167Z,31.36
2023-05-10T10:28:07.771Z,31.22
2023-05-10T10:29:41.404Z,30.96
2023-05-10T10:31:03.359Z,32.25
2023-05-10T10:32:25.221Z,32.25
2023-05-10T10:33:48.292Z,31.98
2023-05-10T10:35:12.931Z,31.34
2023-05-10T10:36:46.606Z,32.33
2023-05-10T10:38:08.519Z,32.55
2023-05-10T10:39:37.832Z,32.83
2023-05-10T10:41:02.312Z,31.94
2023-05-10T10:42:26.180Z,31.01
2023-05-10T10:43:50.160Z,31.07
2023-05-10T10:45:22.296Z,31.79
2023-05-10T10:46:44.575Z,32.50
2023-05-10T10:48:08.745Z,31.20
2023-05-10T10:49:49.236Z,31.77
2023-05-10T10:51:13.317Z,30.66
2023-05-10T10:52:35.724Z,29.73
2023-05-10T10:53:57.510Z,29.43
2023-05-10T10:55:25.929Z,29.44
2023-05-10T10:56:59.131Z,30.27
2023-05-10T10:58:27.991Z,29.61
2023-05-10T10:59:52.013Z,29.22
2023-05-10T11:01:16.058Z,28.32
2023-05-10T11:02:53.349Z,28.11
2023-05-10T11:04:17.212Z,27.80
2023-05-10T11:05:46.468Z,27.95
2023-05-10T11:07:10.585Z,27.78
2023-05-10T11:08:36.452Z,28.38
2023-05-10T11:09:59.836Z,28.99
2023-05-10T11:11:36.272Z,28.96
2023-05-10T11:13:09.581Z,28.69
2023-05-10T11:14:38.983Z,28.22
2023-05-10T11:16:12.820Z,28.43
2023-05-10T11:17:35.206Z,28.39
2023-05-10T11:18:58.861Z,27.81
2023-05-10T11:20:35.751Z,27.76
2023-05-10T11:21:59.876Z,26.55
2023-05-10T11:23:22.452Z,26.26
2023-05-10T11:24:58.624Z,26.71
2023-05-10T11:26:27.493Z,27.30
2023-05-10T11:27:49.173Z,27.46
2023-05-10T11:29:11.194Z,27.56
2023-05-10T11:30:40.644Z,27.39
2023-05-10T11:32:22.888Z,26.96
2023-05-10T11:33:44.868Z,27.20
2023-05-10T11:35:08.730Z,26.62
2023-05-10T11:36:32.016Z,26.58
2023-05-10T11:38:00.974Z,27.06
2023-05-10T11:39:27.663Z,26.95
2023-05-10T11:40:56.648Z,27.04
2023-05-10T11:42:37.481Z,27.49
2023-05-10T11:43:58.935Z,26.39
2023-05-10T11:45:32.636Z,25.90
2023-05-10T11:46:54.420Z,26.13
2023-05-10T11:48:17.693Z,26.04
2023-05-10T11:49:40.060Z,25.38
2023-05-10T11:51:02.880Z,25.19
2023-05-10T11:52:32.382Z,25.49
2023-05-10T11:54:05.493Z,25.93
2023-05-10T11:55:27.284Z,25.84
2023-05-10T11:56:48.933Z,25.40
2023-05-10T11:58:10.966Z,25.23
2023-05-10T11:59:35.220Z,24.91
2023-05-10T12:01:07.203Z,25.11
2023-05-10T12:02:31.375Z,25.41
2023-05-10T12:04:05.282Z,25.23
2023-05-10T12:05:50.213Z,25.10
2023-05-10T12:07:14.384Z,25.00
2023-05-10T12:08:39.011Z,24.16
2023-05-10T12:10:01.113Z,24.24
2023-05-10T12:11:25.270Z,23.69
2023-05-10T12:12:48.321Z,23.61
2023-05-10T12:14:12.222Z,23.36
2023-05-10T12:15:34.530Z,24.19
2023-05-10T12:16:59.284Z,23.90
2023-05-10T12:18:20.611Z,24.10
2023-05-10T12:19:45.164Z,23.67
2023-05-10T12:21:06.993Z,24.11
2023-05-10T12:22:31.152Z,23.94
2023-05-10T12:23:58.091Z,23.75
2023-05-10T12:25:19.582Z,23.50
2023-05-10T12:26:43.961Z,23.97
2023-05-10T12:28:05.652Z,23.87
2023-05-10T12:29:27.267Z,24.20
2023-05-10T12:30:56.724Z,23.92
2023-05-10T12:32:20.827Z,23.94
2023-05-10T12:33:51.122Z,23.35
2023-05-10T12:35:15.710Z,23.50
2023-05-10T12:36:37.629Z,23.52
2023-05-10T12:38:01.671Z,23.54
2023-05-10T12:39:33.221Z,23.26
2023-05-10T12:40:55.027Z,24.06
2023-05-10T12:42:24.393Z,23.05
2023-05-10T12:43:49.239Z,22.54
2023-05-10T12:45:10.984Z,23.24
2023-05-10T12:46:33.401Z,23.11
2023-05-10T12:47:59.437Z,22.65
2023-05-10T12:49:21.637Z,22.71
2023-05-10T12:50:45.641Z,23.43
2023-05-10T12:52:09.684Z,23.93
2023-05-10T12:53:33.951Z,23.64
2023-05-10T12:54:57.573Z,23.65
2023-05-10T12:56:19.271Z,23.96
2023-05-10T12:57:43.414Z,22.89
2023-05-10T12:59:14.628Z,22.92
2023-05-10T13:00:38.969Z,23.37
2023-05-10T13:02:03.171Z,23.54
2023-05-10T13:03:25.405Z,22.87
2023-05-10T13:04:51.033Z,22.81
2023-05-10T13:06:14.360Z,22.71
2023-05-10T13:07:36.186Z,22.26
2023-05-10T13:09:00.505Z,22.19
2023-05-10T13:10:24.844Z,22.06
2023-05-10T13:11:48.974Z,21.50
2023-05-10T13:13:11.109Z,21.45
2023-05-10T13:14:44.757Z,21.82
2023-05-10T13:16:08.823Z,21.48
2023-05-10T13:17:34.224Z,21.64
2023-05-10T13:18:56.374Z,21.73
2023-05-10T13:20:25.700Z,21.74
2023-05-10T13:22:01.692Z,21.80
2023-05-10T13:23:23.454Z,21.53
2023-05-10T13:24:50.268Z,21.31
2023-05-10T13:26:11.761Z,21.78
2023-05-10T13:27:33.821Z,21.83
2023-05-10T13:28:57.793Z,21.43
2023-05-10T13:30:26.977Z,21.82
2023-05-10T13:32:07.943Z,20.43
2023-05-10T13:33:30.152Z,20.90
2023-05-10T13:34:52.209Z,21.06
2023-05-10T13:36:14.133Z,21.38
2023-05-10T13:37:38.129Z,20.97
2023-05-10T13:39:02.290Z,21.39
2023-05-10T13:40:31.426Z,21.17
2023-05-10T13:41:53.970Z,21.23
2023-05-10T13:43:17.373Z,20.57
2023-05-10T13:44:51.471Z,20.66
2023-05-10T13:46:25.098Z,20.28
2023-05-10T13:47:47.189Z,20.45
2023-05-10T13:49:16.145Z,20.54
2023-05-10T13:50:39.510Z,21.13
2023-05-10T13:52:07.596Z,20.92
2023-05-10T13:53:29.452Z,20.19
2023-05-10T13:54:55.849Z,20.18
2023-05-10T13:56:36.113Z,20.58
2023-05-10T13:58:00.365Z,20.74
2023-05-10T13:59:24.447Z,20.76
2023-05-10T14:00:46.443Z,20.53
2023-05-10T14:02:08.536Z,20.59
2023-05-10T14:03:30.773Z,20.72
2023-05-10T14:04:52.494Z,20.73
2023-05-10T14:06:22.011Z,21.60
2023-05-10T14:08:01.022Z,20.94
2023-05-10T14:09:22.866Z,20.91
2023-05-10T14:10:49.436Z,21.19
2023-05-10T14:12:15.525Z,20.80
2023-05-10T14:13:40.297Z,20.64
2023-05-10T14:15:07.707Z,20.23
2023-05-10T14:16:29.892Z,20.83
2023-05-10T14:17:54.358Z,20.30
2023-05-10T14:19:28.860Z,20.33
2023-05-10T14:21:02.341Z,19.66
2023-05-10T14:22:26.497Z,19.89
2023-05-10T14:23:50.376Z,20.11
2023-05-10T14:25:23.941Z,19.81
2023-05-10T14:26:46.154Z,19.83
2023-05-10T14:28:20.307Z,19.82
2023-05-10T14:29:54.577Z,20.14
2023-05-10T14:31:18.017Z,19.39
2023-05-10T14:32:59.205Z,19.16
2023-05-10T14:34:28.428Z,19.18
2023-05-10T14:35:50.189Z,18.94
2023-05-10T14:37:14.532Z,19.06
2023-05-10T14:38:39.337Z,19.11
2023-05-10T14:40:01.365Z,18.98
2023-05-10T14:41:22.972Z,18.98
2023-05-10T14:42:47.824Z,19.19
2023-05-10T14:44:16.828Z,18.74
2023-05-10T14:45:41.310Z,19.04
2023-05-10T14:47:03.370Z,18.55
2023-05-10T14:48:25.264Z,18.97
2023-05-10T14:49:47.268Z,18.95
2023-05-10T14:51:11.389Z,19.04
2023-05-10T14:52:54.562Z,19.26
2023-05-10T14:54:42.769Z,19.17
2023-05-10T14:56:04.695Z,18.93
2023-05-10T14:57:26.143Z,19.17
2023-05-10T14:58:47.945Z,19.32
2023-05-10T15:00:12.476Z,19.59
2023-05-10T15:01:36.415Z,19.64
2023-05-10T15:02:58.955Z,19.53
2023-05-10T15:04:23.711Z,19.13
2023-05-10T15:05:48.980Z,19.30
2023-05-10T15:07:18.443Z,18.78
2023-05-10T15:08:52.671Z,19.47
2023-05-10T15:10:28.470Z,19.19
2023-05-10T15:11:50.264Z,19.15
2023-05-10T15:13:12.268Z,18.54
2023-05-10T15:14:34.182Z,18.62
2023-05-10T15:16:03.691Z,19.24
2023-05-10T15:17:25.351Z,18.79
2023-05-10T15:18:50.123Z,18.43
2023-05-10T15:20:11.866Z,18.65
2023-05-10T15:21:50.252Z,18.35
2023-05-10T15:23:26.041Z,18.49
2023-05-10T15:24:50.299Z,18.64
2023-05-10T15:26:12.255Z,18.99
2023-05-10T15:27:34.338Z,18.91
2023-05-10T15:29:00.613Z,19.03
2023-05-10T15:30:34.215Z,18.91
2023-05-10T15:31:58.649Z,19.14
2023-05-10T15:33:22.147Z,18.75
2023-05-10T15:34:44.356Z,18.37
2023-05-10T15:36:17.829Z,18.67
2023-05-10T15:37:39.809Z,18.85
2023-05-10T15:39:01.292Z,18.97
2023-05-10T15:40:30.650Z,19.38
2023-05-10T15:41:52.481Z,18.74
2023-05-10T15:43:16.298Z,19.05
2023-05-10T15:44:39.488Z,18.97
2023-05-10T15:46:01.736Z,18.93
2023-05-10T15:47:25.433Z,19.00
2023-05-10T15:48:47.500Z,19.86
2023-05-10T15:50:09.222Z,19.40
2023-05-10T15:51:35.911Z,19.45
2023-05-10T15:53:00.759Z,19.10
2023-05-10T15:54:23.353Z,19.02
2023-05-10T15:55:45.414Z,18.90
2023-05-10T15:57:07.928Z,19.13
2023-05-10T15:58:29.764Z,19.41
2023-05-10T15:59:51.540Z,19.29
2023-05-10T16:01:15.391Z,19.34
2023-05-10T16:02:49.004Z,19.48
2023-05-10T16:04:11.147Z,19.63
2023-05-10T16:05:40.521Z,19.98
2023-05-10T16:07:02.500Z,20.89
2023-05-10T16:08:35.603Z,20.73
2023-05-10T16:09:57.682Z,20.98
2023-05-10T16:11:19.062Z,21.46
2023-05-10T16:12:40.883Z,21.93
2023-05-10T16:14:02.761Z,22.24
2023-05-10T16:15:24.354Z,22.22
2023-05-10T16:16:48.940Z,22.57
2023-05-10T16:18:18.017Z,22.76
2023-05-10T16:19:47.692Z,23.04
2023-05-10T16:21:11.800Z,22.83
2023-05-10T16:22:33.629Z,23.11
2023-05-10T16:23:59.773Z,23.59
2023-05-10T16:25:21.260Z,24.03
2023-05-10T16:26:45.311Z,24.10
2023-05-10T16:28:07.545Z,24.18
2023-05-10T16:29:31.501Z,24.48
2023-05-10T16:30:53.873Z,24.75
2023-05-10T16:32:20.916Z,25.18
2023-05-10T16:33:46.167Z,25.57
2023-05-10T16:35:08.011Z,25.67
2023-05-10T16:36:33.342Z,26.14
2023-05-10T16:37:55.755Z,26.29
2023-05-10T16:39:17.469Z,26.37
2023-05-10T16:40:39.821Z,26.35
2023-05-10T16:42:12.966Z,26.35
2023-05-10T16:43:36.695Z,26.94
2023-05-10T16:44:58.272Z,27.24
2023-05-10T16:46:27.437Z,27.34
2023-05-10T16:47:49.314Z,27.38
2023-05-10T16:49:12.345Z,27.83
2023-05-10T16:50:34.728Z,27.85
2023-05-10T16:51:58.420Z,27.90
2023-05-10T16:53:20.238Z,28.54
2023-05-10T16:54:42.309Z,28.50
2023-05-10T16:56:04.021Z,28.90
2023-05-10T16:57:25.719Z,28.87
2023-05-10T16:58:49.877Z,29.05
2023-05-10T17:00:11.972Z,29.33
2023-05-10T17:01:33.889Z,29.15
2023-05-10T17:02:55.865Z,29.32
2023-05-10T17:04:17.726Z,29.47
2023-05-10T17:05:42.024Z,29.48
2023-05-10T17:07:13.364Z,29.73
2023-05-10T17:08:37.857Z,29.95
2023-05-10T17:09:59.843Z,29.83
2023-05-10T17:11:21.788Z,30.26
2023-05-10T17:12:43.578Z,30.44
2023-05-10T17:14:07.767Z,30.59
2023-05-10T17:15:31.769Z,31.19
2023-05-10T17:16:55.046Z,31.08
2023-05-10T17:18:28.227Z,31.34
2023-05-10T17:19:58.646Z,31.25
2023-05-10T17:21:20.415Z,31.16
2023-05-10T17:22:44.597Z,31.51
2023-05-10T17:24:08.728Z,31.25
2023-05-10T17:25:33.460Z,31.44
2023-05-10T17:26:57.508Z,31.31
2023-05-10T17:28:21.237Z,31.21
2023-05-10T17:29:45.331Z,31.58
2023-05-10T17:31:07.543Z,32.13
2023-05-10T17:32:41.099Z,32.22
2023-05-10T17:34:05.461Z,32.21
2023-05-10T17:35:42.944Z,32.35
2023-05-10T17:37:04.504Z,32.50
2023-05-10T17:38:26.191Z,32.80
2023-05-10T17:39:47.984Z,32.63
2023-05-10T17:41:12.161Z,32.81
2023-05-10T17:42:34.150Z,32.85
2023-05-10T17:43:58.762Z,32.99
2023-05-10T17:45:20.369Z,33.54
2023-05-10T17:46:44.958Z,33.72
2023-05-10T17:48:07.744Z,33.38
2023-05-10T17:49:29.312Z,33.62
2023-05-10T17:50:50.705Z,33.53
2023-05-10T17:52:12.531Z,33.00
2023-05-10T17:53:41.752Z,33.65
2023-05-10T17:55:11.171Z,33.48
2023-05-10T17:56:33.356Z,33.51
2023-05-10T17:57:58.512Z,33.51
2023-05-10T17:59:20.316Z,33.46
2023-05-10T18:00:41.886Z,33.99
2023-05-10T18:02:03.402Z,33.95
2023-05-10T18:03:27.064Z,33.83
2023-05-10T18:05:01.799Z,34.28
2023-05-10T18:06:23.721Z,34.29
2023-05-10T18:07:47.964Z,34.52
2023-05-10T18:09:10.229Z,34.29
2023-05-10T18:10:32.298Z,34.50
2023-05-10T18:11:54.045Z,34.91
2023-05-10T18:13:15.534Z,34.98
2023-05-10T18:14:41.384Z,35.29
2023-05-10T18:16:05.702Z,35.31